Time;durP1;ratioP1;P1;durP2;ratioP2;P2;SDS_P1;SDS_P2;PMS_P1;PMS_P2;Temp;Humidity;BMP_temperature;BMP_pressure;BME280_temperature;BME280_humidity;BME280_pressure;Samples;Min_cycle;Max_cycle;Signal;HPM_P1;HPM_P2
2022/01/24 00:01:38;;;;;;;;;101.00;79.00;5.00;47.20;;;;;;5075022;28;8808;-64
2022/01/24 00:04:04;;;;;;;;;107.00;87.50;5.00;47.20;;;;;;5074874;28;8783;-64
2022/01/24 00:06:32;;;;;;;;;103.25;84.00;5.10;47.20;;;;;;5075001;28;9429;-63
2022/01/24 00:09:00;;;;;;;;;88.50;73.25;4.70;47.30;;;;;;5075019;28;8898;-63
2022/01/24 00:11:37;;;;;;;;;87.50;70.75;4.70;47.70;;;;;;5074647;28;8834;-65
2022/01/24 00:17:06;;;;;;;;;79.00;63.00;4.50;47.90;;;;;;5074564;28;8752;-64
2022/01/24 00:27:48;;;;;;;;;84.50;67.75;4.20;48.00;;;;;;5074600;28;8748;-63
2022/01/24 00:30:15;;;;;;;;;84.50;66.00;4.00;49.00;;;;;;5074497;28;8915;-64
2022/01/24 00:32:42;;;;;;;;;86.50;68.00;4.10;48.90;;;;;;5074688;28;9489;-63
2022/01/24 00:35:08;;;;;;;;;84.50;69.00;4.40;48.20;;;;;;5074443;28;8792;-64
2022/01/24 00:37:34;;;;;;;;;77.00;61.25;4.60;47.40;;;;;;5074347;28;8841;-63
2022/01/24 00:40:01;;;;;;;;;79.75;64.50;4.70;46.80;;;;;;5074432;28;8772;-63
2022/01/24 00:42:49;;;;;;;;;77.75;62.25;4.90;46.90;;;;;;5074377;28;8760;-64
2022/01/24 00:48:29;;;;;;;;;92.25;71.75;4.80;46.50;;;;;;5074725;28;8926;-63
2022/01/24 00:55:51;;;;;;;;;99.75;77.50;4.80;46.80;;;;;;5078384;28;8765;-62
2022/01/24 00:58:17;;;;;;;;;93.25;73.50;5.00;45.90;;;;;;5078557;28;8772;-63
2022/01/24 01:00:43;;;;;;;;;99.75;78.75;5.00;46.20;;;;;;5078472;28;8865;-65
2022/01/24 01:03:09;;;;;;;;;95.25;74.00;5.10;45.70;;;;;;5078174;28;8760;-64
2022/01/24 01:18:55;;;;;;;;;80.50;65.50;4.40;47.00;;;;;;5078634;28;8804;-65
2022/01/24 01:21:21;;;;;;;;;74.75;58.50;4.50;46.70;;;;;;5078019;28;8929;-63
2022/01/24 01:23:52;;;;;;;;;80.50;63.00;4.30;46.20;;;;;;5077682;28;8780;-62
2022/01/24 01:26:31;;;;;;;;;76.00;63.25;4.10;46.60;;;;;;5077758;28;8764;-63
2022/01/24 01:29:03;;;;;;;;;65.75;57.00;4.20;46.60;;;;;;5078017;28;8796;-64
2022/01/24 01:34:27;;;;;;;;;77.75;58.50;4.40;46.10;;;;;;5077878;28;8753;-63
2022/01/24 01:53:27;;;;;;;;;70.00;57.00;4.10;46.20;;;;;;5077329;28;9395;-62
2022/01/24 01:55:50;;;;;;;;;70.50;56.25;4.30;45.80;;;;;;5077199;28;8823;-63
2022/01/24 01:58:21;;;;;;;;;70.75;58.50;4.10;45.80;;;;;;5077184;28;8862;-62
2022/01/24 02:00:54;;;;;;;;;60.25;48.25;4.20;45.90;;;;;;5076125;28;8840;-63
2022/01/24 02:03:23;;;;;;;;;72.25;57.00;4.20;45.40;;;;;;5076859;28;9404;-64
2022/01/24 02:05:49;;;;;;;;;66.00;56.25;4.00;45.10;;;;;;5077309;28;8825;-61
2022/01/24 02:08:16;;;;;;;;;72.25;56.50;4.10;45.30;;;;;;5075952;28;8768;-64
2022/01/24 02:10:43;;;;;;;;;66.75;52.50;4.00;45.00;;;;;;5077028;28;8783;-65
2022/01/24 02:13:10;;;;;;;;;75.25;60.25;4.20;45.10;;;;;;5076717;28;8823;-64
2022/01/24 02:18:22;;;;;;;;;71.75;55.50;4.30;44.70;;;;;;5076994;28;8808;-63
2022/01/24 02:25:57;;;;;;;;;70.00;57.50;4.00;44.60;;;;;;5076836;28;8761;-63
2022/01/24 02:28:25;;;;;;;;;70.75;56.75;3.90;44.70;;;;;;5076763;28;8768;-63
2022/01/24 02:31:21;;;;;;;;;56.00;50.00;3.80;44.90;;;;;;5076866;28;9450;-64
2022/01/24 02:33:49;;;;;;;;;67.25;50.25;3.90;45.10;;;;;;5076535;28;8848;-64
2022/01/24 02:36:24;;;;;;;;;58.75;47.75;3.80;44.60;;;;;;5076514;28;8785;-63
2022/01/24 02:49:32;;;;;;;;;65.75;54.50;3.70;44.70;;;;;;5076400;28;8757;-64
2022/01/24 02:52:05;;;;;;;;;70.50;59.50;3.70;44.60;;;;;;5076121;28;8822;-62
2022/01/24 02:54:33;;;;;;;;;66.25;51.75;3.80;44.70;;;;;;5073399;28;8791;-64
2022/01/24 02:57:00;;;;;;;;;64.75;54.00;3.60;44.60;;;;;;5076147;28;8903;-63
2022/01/24 02:59:26;;;;;;;;;60.00;52.50;3.70;44.40;;;;;;5076360;28;8749;-64
2022/01/24 03:01:52;;;;;;;;;59.25;48.75;3.40;44.80;;;;;;5076160;28;8906;-64
2022/01/24 03:04:19;;;;;;;;;54.75;48.50;3.60;44.80;;;;;;5076235;28;8792;-63
2022/01/24 03:06:45;;;;;;;;;60.75;51.75;3.50;44.60;;;;;;5075901;28;9438;-64
2022/01/24 03:09:12;;;;;;;;;50.00;45.00;3.50;44.70;;;;;;5076118;28;8791;-63
2022/01/24 03:11:58;;;;;;;;;57.00;48.25;3.50;44.30;;;;;;5075585;28;8772;-64
2022/01/24 03:14:27;;;;;;;;;57.50;48.50;3.20;45.00;;;;;;5075617;28;8780;-63
2022/01/24 03:16:54;;;;;;;;;39.00;35.00;3.40;44.90;;;;;;5075748;28;8769;-63
2022/01/24 03:19:20;;;;;;;;;51.50;46.75;3.40;44.60;;;;;;5075703;28;8830;-65
2022/01/24 03:21:46;;;;;;;;;45.00;43.50;3.50;44.40;;;;;;5075723;28;8811;-63
2022/01/24 03:24:13;;;;;;;;;54.00;47.50;3.50;44.30;;;;;;5075560;28;8772;-64
2022/01/24 03:26:39;;;;;;;;;59.75;48.50;3.50;44.20;;;;;;5075449;28;8795;-63
2022/01/24 03:29:05;;;;;;;;;57.00;48.25;3.50;43.70;;;;;;5075768;28;8763;-65
2022/01/24 03:31:32;;;;;;;;;59.50;48.00;3.50;43.60;;;;;;5075411;28;8871;-61
2022/01/24 03:33:58;;;;;;;;;58.50;48.50;3.50;43.40;;;;;;5075399;28;8756;-62
2022/01/24 03:36:24;;;;;;;;;61.00;49.50;3.30;43.70;;;;;;5075317;28;8887;-61
2022/01/24 03:38:49;;;;;;;;;51.50;45.00;3.20;43.70;;;;;;5075242;28;8764;-64
2022/01/24 03:41:15;;;;;;;;;44.50;42.75;3.00;44.00;;;;;;5075132;28;8835;-63
2022/01/24 03:43:41;;;;;;;;;46.00;44.50;3.20;45.10;;;;;;5075181;28;8791;-63
2022/01/24 03:46:25;;;;;;;;;42.75;38.50;3.40;43.80;;;;;;5075130;28;8792;-63
2022/01/24 03:48:54;;;;;;;;;49.75;45.00;3.40;43.30;;;;;;5075547;28;9517;-62
2022/01/24 03:51:22;;;;;;;;;48.00;43.00;3.60;43.20;;;;;;5075301;28;9464;-65
2022/01/24 03:53:49;;;;;;;;;35.00;28.25;3.70;42.70;;;;;;5075000;28;8764;-65
2022/01/24 03:56:15;;;;;;;;;48.00;44.00;3.70;42.80;;;;;;5074968;28;8776;-63
2022/01/24 03:58:42;;;;;;;;;38.00;37.75;3.80;42.30;;;;;;5075142;28;8749;-62
2022/01/24 04:01:08;;;;;;;;;48.50;45.00;3.80;42.10;;;;;;5075138;28;8796;-64
2022/01/24 04:03:36;;;;;;;;;40.50;38.00;3.80;42.20;;;;;;5075149;28;8813;-63
2022/01/24 04:06:04;;;;;;;;;38.00;36.50;3.80;41.90;;;;;;5075005;28;8760;-64
2022/01/24 04:08:30;;;;;;;;;49.00;45.25;3.90;41.80;;;;;;5074770;28;8764;-64
2022/01/24 04:10:58;;;;;;;;;52.00;46.25;3.80;42.00;;;;;;5075012;28;8760;-63
2022/01/24 04:18:43;;;;;;;;;71.25;57.00;3.70;41.70;;;;;;5074963;28;8796;-62
2022/01/24 04:21:21;;;;;;;;;73.75;61.25;3.70;42.00;;;;;;5074793;28;8808;-61
2022/01/24 04:23:56;;;;;;;;;78.00;62.00;3.70;42.20;;;;;;5074547;28;8887;-63
2022/01/24 04:26:22;;;;;;;;;74.00;60.00;3.70;42.20;;;;;;5074841;28;8756;-63
2022/01/24 04:28:47;;;;;;;;;48.25;45.00;3.80;42.20;;;;;;5074502;28;9422;-64
2022/01/24 04:31:14;;;;;;;;;68.75;57.00;3.60;42.50;;;;;;5074473;28;8768;-64
2022/01/24 04:33:39;;;;;;;;;59.50;51.75;3.70;42.20;;;;;;5074741;28;9446;-63
2022/01/24 04:36:06;;;;;;;;;74.00;60.00;3.60;42.10;;;;;;5074407;28;8777;-63
2022/01/24 04:38:32;;;;;;;;;60.75;48.25;3.60;42.00;;;;;;5074664;28;8783;-63
2022/01/24 04:41:02;;;;;;;;;66.75;57.00;3.70;41.80;;;;;;5074286;28;8792;-63
2022/01/24 04:56:38;;;;;;;;;83.50;62.50;3.50;42.00;;;;;;5074326;28;8745;-63
2022/01/24 04:59:05;;;;;;;;;79.00;66.00;3.30;42.00;;;;;;5074472;28;8871;-63
2022/01/24 05:01:31;;;;;;;;;82.50;65.50;3.40;42.40;;;;;;5070319;28;8800;-64
2022/01/24 05:03:57;;;;;;;;;76.50;63.25;3.40;42.30;;;;;;5062158;28;8798;-63
2022/01/24 05:06:23;;;;;;;;;79.50;64.00;3.30;42.40;;;;;;5063458;28;8779;-63
2022/01/24 05:08:49;;;;;;;;;72.75;57.25;3.30;42.40;;;;;;5054020;28;8771;-63
2022/01/24 05:11:24;;;;;;;;;78.75;66.25;3.30;42.40;;;;;;5054236;28;8775;-63
2022/01/24 05:24:33;;;;;;;;;61.00;52.75;3.10;42.10;;;;;;5053892;28;8783;-65
2022/01/24 05:26:58;;;;;;;;;65.75;54.25;3.10;42.20;;;;;;5053935;28;8817;-63
2022/01/24 05:29:25;;;;;;;;;33.00;28.50;3.20;42.20;;;;;;5053928;28;8763;-66
2022/01/24 05:31:51;;;;;;;;;67.00;56.00;3.10;42.30;;;;;;5054197;28;9420;-62
2022/01/24 05:34:17;;;;;;;;;71.75;56.50;3.10;42.40;;;;;;5053722;28;8864;-61
2022/01/24 05:36:43;;;;;;;;;59.25;49.25;3.00;42.50;;;;;;5053785;28;8782;-61
2022/01/24 05:39:11;;;;;;;;;57.25;48.25;2.80;42.90;;;;;;5055249;28;8775;-65
2022/01/24 05:41:37;;;;;;;;;64.25;52.25;2.70;42.90;;;;;;5057467;28;8823;-61
2022/01/24 05:44:05;;;;;;;;;68.75;56.00;2.80;42.70;;;;;;5057348;28;8775;-62
2022/01/24 05:46:30;;;;;;;;;77.50;62.75;2.70;43.00;;;;;;5057718;28;9487;-64
2022/01/24 05:48:56;;;;;;;;;81.00;60.75;2.80;43.00;;;;;;5057809;28;8819;-65
2022/01/24 05:51:23;;;;;;;;;72.50;60.25;2.90;43.00;;;;;;5057196;28;8878;-60
2022/01/24 05:53:49;;;;;;;;;71.25;60.25;2.90;42.80;;;;;;5057120;28;8779;-60
2022/01/24 05:56:16;;;;;;;;;77.75;63.75;2.90;42.70;;;;;;5057191;28;8836;-63
2022/01/24 05:58:42;;;;;;;;;83.75;66.00;2.80;42.80;;;;;;5057171;28;8775;-66
2022/01/24 06:01:08;;;;;;;;;81.75;66.25;2.90;42.70;;;;;;5059444;28;8805;-61
2022/01/24 06:03:34;;;;;;;;;77.75;63.25;2.90;42.60;;;;;;5072594;28;8794;-62
2022/01/24 06:06:00;;;;;;;;;54.50;48.00;3.00;42.70;;;;;;5066700;28;8901;-62
2022/01/24 06:08:25;;;;;;;;;89.75;69.50;2.80;42.40;;;;;;5071722;28;8776;-61
2022/01/24 06:10:53;;;;;;;;;81.75;64.75;2.90;42.70;;;;;;5077052;28;8781;-62
2022/01/24 06:13:19;;;;;;;;;84.25;65.00;2.90;42.80;;;;;;5066366;28;8810;-61
2022/01/24 06:15:45;;;;;;;;;82.25;66.00;2.90;42.60;;;;;;5063420;28;8793;-62
2022/01/24 06:18:11;;;;;;;;;92.50;75.00;3.00;42.60;;;;;;5063435;28;8879;-64
2022/01/24 06:20:36;;;;;;;;;97.25;73.75;3.00;42.70;;;;;;5067605;28;8831;-63
2022/01/24 06:23:02;;;;;;;;;97.00;78.00;3.00;42.40;;;;;;5064338;28;9403;-62
2022/01/24 06:25:29;;;;;;;;;99.00;77.00;3.10;42.40;;;;;;5067970;28;8784;-62
2022/01/24 06:27:55;;;;;;;;;93.50;72.50;3.10;42.30;;;;;;5056124;28;8772;-63
2022/01/24 06:30:22;;;;;;;;;92.50;69.50;3.10;42.20;;;;;;5058938;28;8881;-64
2022/01/24 06:32:48;;;;;;;;;96.75;76.50;2.90;42.50;;;;;;5069149;28;8768;-63
2022/01/24 06:35:14;;;;;;;;;90.25;72.25;2.90;42.60;;;;;;5059689;28;8814;-64
2022/01/24 06:37:41;;;;;;;;;89.00;69.00;2.80;42.50;;;;;;5056171;28;8759;-64
2022/01/24 06:40:09;;;;;;;;;102.00;78.33;2.80;42.90;;;;;;5065973;28;8792;-63
2022/01/24 06:42:35;;;;;;;;;94.25;74.75;2.80;42.70;;;;;;5076438;28;8772;-63
2022/01/24 06:45:01;;;;;;;;;100.75;78.00;2.80;43.20;;;;;;5075772;28;8780;-62
2022/01/24 06:47:27;;;;;;;;;106.25;82.50;2.50;43.30;;;;;;5075868;28;8820;-63
2022/01/24 06:49:53;;;;;;;;;100.50;83.75;2.00;44.00;;;;;;5072805;28;8890;-63
2022/01/24 06:52:20;;;;;;;;;104.25;82.25;1.90;45.00;;;;;;5063460;28;8849;-62
2022/01/24 06:54:46;;;;;;;;;92.50;72.25;1.90;44.90;;;;;;5067040;28;9439;-63
2022/01/24 06:57:14;;;;;;;;;93.25;73.50;1.70;45.50;;;;;;5069476;28;8761;-62
2022/01/24 06:59:44;;;;;;;;;93.25;73.75;1.50;45.40;;;;;;5069753;28;8764;-63
2022/01/24 07:02:11;;;;;;;;;84.00;64.25;1.80;45.70;;;;;;5059574;28;8800;-62
2022/01/24 07:04:39;;;;;;;;;88.25;63.00;2.10;44.90;;;;;;5065495;28;8771;-63
2022/01/24 07:07:06;;;;;;;;;71.00;58.00;2.30;44.60;;;;;;5065753;28;8788;-62
2022/01/24 07:09:32;;;;;;;;;82.75;66.00;2.30;44.30;;;;;;5056859;28;8853;-62
2022/01/24 07:11:58;;;;;;;;;73.50;59.25;2.50;43.90;;;;;;5060348;28;8803;-63
2022/01/24 07:14:24;;;;;;;;;70.25;57.75;2.70;43.30;;;;;;5061770;28;8759;-63
2022/01/24 07:19:31;;;;;;;;;58.00;49.75;2.90;42.70;;;;;;5054696;28;8767;-62
2022/01/24 07:21:59;;;;;;;;;66.75;52.50;3.10;42.60;;;;;;5055459;28;8894;-62
2022/01/24 07:24:26;;;;;;;;;79.25;63.00;3.10;41.80;;;;;;5061252;28;9539;-63
2022/01/24 07:26:52;;;;;;;;;71.50;55.50;3.20;41.90;;;;;;5063084;28;8767;-63
2022/01/24 07:29:19;;;;;;;;;83.50;66.00;3.10;42.00;;;;;;5064942;28;8965;-62
2022/01/24 07:31:49;;;;;;;;;68.75;53.50;3.20;41.80;;;;;;5066021;28;8908;-62
2022/01/24 07:34:16;;;;;;;;;56.25;48.75;3.20;41.60;;;;;;5068897;28;8800;-62
2022/01/24 07:36:43;;;;;;;;;76.75;59.75;3.00;42.20;;;;;;5068757;28;8765;-62
2022/01/24 07:39:09;;;;;;;;;62.50;51.50;3.00;42.10;;;;;;5059334;28;8784;-62
2022/01/24 07:41:42;;;;;;;;;77.25;65.00;3.20;41.80;;;;;;5062422;28;8814;-63
2022/01/24 07:44:08;;;;;;;;;94.75;70.00;3.30;41.90;;;;;;5063704;28;8813;-64
2022/01/24 07:46:34;;;;;;;;;82.50;66.00;3.30;41.90;;;;;;5062076;28;8787;-63
2022/01/24 07:49:04;;;;;;;;;81.50;60.50;3.20;42.00;;;;;;5054904;28;8786;-62
2022/01/24 07:51:30;;;;;;;;;49.75;40.75;3.20;41.70;;;;;;5054960;28;9467;-64
2022/01/24 07:53:56;;;;;;;;;75.00;61.00;3.20;41.40;;;;;;5055108;28;8822;-64
2022/01/24 07:56:22;;;;;;;;;84.50;68.00;3.40;41.70;;;;;;5057098;28;9750;-64
2022/01/24 07:58:48;;;;;;;;;59.75;48.75;3.50;41.30;;;;;;5062005;28;9398;-62
2022/01/24 08:01:14;;;;;;;;;81.75;63.00;3.60;40.90;;;;;;5063789;28;8832;-62
2022/01/24 08:03:41;;;;;;;;;84.50;66.00;3.60;40.60;;;;;;5073834;28;8795;-63
2022/01/24 08:06:06;;;;;;;;;77.75;65.25;3.60;40.40;;;;;;5073885;28;8772;-63
2022/01/24 08:08:32;;;;;;;;;72.00;59.50;3.70;40.50;;;;;;5073692;28;9706;-63
2022/01/24 08:10:58;;;;;;;;;83.75;67.00;3.90;40.40;;;;;;5073917;28;8765;-63
2022/01/24 08:13:24;;;;;;;;;72.50;60.50;3.80;40.20;;;;;;5073549;28;8796;-63
2022/01/24 08:15:49;;;;;;;;;76.25;60.75;3.80;40.30;;;;;;5073463;28;8784;-63
2022/01/24 08:18:15;;;;;;;;;67.00;54.50;3.90;40.20;;;;;;5073606;28;8800;-63
2022/01/24 08:20:41;;;;;;;;;76.00;64.00;4.00;40.30;;;;;;5072896;28;8804;-63
2022/01/24 08:23:11;;;;;;;;;76.50;63.50;4.00;39.80;;;;;;5072948;28;8804;-63
2022/01/24 08:25:38;;;;;;;;;67.75;54.50;4.20;39.80;;;;;;5072118;28;8793;-64
2022/01/24 08:28:04;;;;;;;;;73.25;60.25;4.00;39.70;;;;;;5069856;28;8809;-63
2022/01/24 08:30:30;;;;;;;;;76.75;60.75;4.10;39.70;;;;;;5053351;28;9430;-63
2022/01/24 08:32:56;;;;;;;;;65.25;53.00;4.10;39.50;;;;;;5064938;28;9534;-63
2022/01/24 08:35:23;;;;;;;;;71.00;57.25;4.00;39.60;;;;;;5068778;28;8753;-63
2022/01/24 08:37:49;;;;;;;;;72.50;55.75;4.10;39.50;;;;;;5061917;28;9456;-64
2022/01/24 08:40:24;;;;;;;;;71.75;60.00;4.20;39.10;;;;;;5069245;28;8777;-64
2022/01/24 08:42:59;;;;;;;;;72.50;58.50;4.20;39.70;;;;;;5060455;28;8834;-64
2022/01/24 08:48:31;;;;;;;;;73.50;60.75;4.30;39.20;;;;;;5048715;28;8877;-62
2022/01/24 08:50:59;;;;;;;;;75.00;59.50;4.40;38.80;;;;;;5049542;28;8784;-63
2022/01/24 08:53:30;;;;;;;;;72.00;58.00;4.30;38.70;;;;;;5049081;28;8857;-63
2022/01/24 08:55:59;;;;;;;;;65.50;52.75;4.30;38.70;;;;;;5049184;28;8816;-63
2022/01/24 08:58:26;;;;;;;;;67.75;56.00;4.40;39.10;;;;;;5050400;28;8779;-62
2022/01/24 09:00:53;;;;;;;;;65.25;54.00;4.40;39.00;;;;;;5034312;28;9485;-63
2022/01/24 09:03:19;;;;;;;;;79.50;63.25;4.50;38.40;;;;;;5050671;28;8799;-63
2022/01/24 09:05:47;;;;;;;;;66.25;55.50;4.50;38.20;;;;;;5050785;28;9316;-63
2022/01/24 09:08:14;;;;;;;;;78.50;61.50;4.60;38.20;;;;;;5050879;28;8791;-63
2022/01/24 09:10:40;;;;;;;;;67.50;55.75;4.70;38.00;;;;;;5050900;28;8760;-63
2022/01/24 09:13:07;;;;;;;;;48.75;44.00;4.50;37.30;;;;;;5051471;28;8831;-63
2022/01/24 09:15:33;;;;;;;;;69.25;55.25;3.20;38.30;;;;;;5055827;28;8768;-63
2022/01/24 09:17:59;;;;;;;;;62.75;53.50;3.00;40.10;;;;;;5055005;28;8826;-63
2022/01/24 09:20:25;;;;;;;;;62.50;52.75;3.20;40.00;;;;;;5062738;28;8899;-62
2022/01/24 09:22:52;;;;;;;;;72.75;57.50;3.50;40.00;;;;;;5066330;28;8822;-65
2022/01/24 09:25:19;;;;;;;;;63.25;49.00;3.70;39.70;;;;;;5068671;28;8791;-65
2022/01/24 09:27:47;;;;;;;;;55.00;46.50;3.80;40.00;;;;;;5057600;28;8775;-65
2022/01/24 09:30:16;;;;;;;;;66.00;54.50;4.10;39.40;;;;;;5057445;28;8783;-64
2022/01/24 09:32:42;;;;;;;;;64.25;52.25;4.20;38.30;;;;;;5066981;28;8799;-65
2022/01/24 09:35:10;;;;;;;;;71.75;56.00;4.40;38.30;;;;;;5077487;28;8792;-65
2022/01/24 09:37:38;;;;;;;;;72.75;57.75;4.60;38.20;;;;;;5077585;28;8777;-64
2022/01/24 09:40:04;;;;;;;;;67.75;57.00;4.80;38.20;;;;;;5077467;28;8764;-64
2022/01/24 09:42:31;;;;;;;;;70.25;57.75;4.70;37.60;;;;;;5077370;28;8804;-63
2022/01/24 09:44:57;;;;;;;;;63.00;52.00;4.90;38.60;;;;;;5077342;28;8771;-63
2022/01/24 09:47:23;;;;;;;;;60.00;53.00;5.10;38.00;;;;;;5077515;28;8796;-62
2022/01/24 09:49:51;;;;;;;;;65.50;55.50;5.30;37.40;;;;;;5077196;28;8776;-64
2022/01/24 09:52:18;;;;;;;;;57.75;50.00;5.40;37.10;;;;;;5077144;28;8811;-63
2022/01/24 09:54:44;;;;;;;;;63.50;53.50;5.40;36.90;;;;;;5077219;28;8805;-63
2022/01/24 09:57:10;;;;;;;;;61.25;51.25;5.20;36.00;;;;;;5068849;28;8879;-64
2022/01/24 09:59:36;;;;;;;;;69.50;56.50;4.90;37.10;;;;;;5064555;28;8795;-65
2022/01/24 10:02:02;;;;;;;;;65.75;53.00;5.00;38.00;;;;;;5064572;28;8817;-66
2022/01/24 10:04:29;;;;;;;;;48.25;44.25;5.30;38.00;;;;;;5057471;28;8800;-63
2022/01/24 10:07:00;;;;;;;;;55.25;47.25;4.60;36.50;;;;;;5062529;28;8784;-65
2022/01/24 10:09:37;;;;;;;;;65.75;52.25;4.00;37.70;;;;;;5062556;28;8812;-65
2022/01/24 10:12:12;;;;;;;;;46.00;40.00;4.00;38.70;;;;;;5064313;28;8791;-63
2022/01/24 10:17:27;;;;;;;;;61.00;48.25;4.60;37.80;;;;;;5068988;28;8840;-64
2022/01/24 10:19:53;;;;;;;;;56.25;48.50;4.90;37.90;;;;;;5056727;28;8860;-64
2022/01/24 10:22:23;;;;;;;;;62.25;50.25;5.60;36.50;;;;;;5056500;28;8885;-64
2022/01/24 10:24:53;;;;;;;;;66.00;51.25;6.20;34.90;;;;;;5056564;28;8802;-64
2022/01/24 10:27:25;;;;;;;;;55.25;46.75;6.90;35.20;;;;;;5056666;28;8782;-64
2022/01/24 10:30:07;;;;;;;;;47.25;42.50;8.30;32.90;;;;;;5056717;28;8909;-64
2022/01/24 10:32:36;;;;;;;;;46.50;42.50;8.60;30.40;;;;;;5064498;28;8787;-65
2022/01/24 10:35:45;;;;;;;;;56.75;46.75;10.10;29.40;;;;;;5065775;28;8944;-64
2022/01/24 10:43:36;;;;;;;;;47.75;39.00;18.00;22.10;;;;;;5064323;28;8756;-64
2022/01/24 10:46:02;;;;;;;;;47.25;39.50;21.30;19.50;;;;;;5060659;28;8783;-65
2022/01/24 10:48:33;;;;;;;;;45.75;39.50;23.60;17.60;;;;;;5056313;28;8779;-65
2022/01/24 10:51:18;;;;;;;;;46.50;38.25;24.10;16.50;;;;;;5061346;28;8780;-64
2022/01/24 10:53:49;;;;;;;;;50.00;41.00;25.40;15.80;;;;;;5058972;28;8786;-65
2022/01/24 10:56:27;;;;;;;;;52.00;43.67;25.10;14.40;;;;;;5058789;28;8771;-65
2022/01/24 10:58:57;;;;;;;;;44.00;38.00;24.70;14.60;;;;;;5060587;28;8850;-65
2022/01/24 11:01:27;;;;;;;;;47.67;39.33;25.60;14.70;;;;;;5064663;28;8823;-64
2022/01/24 11:04:11;;;;;;;;;43.67;35.67;26.90;14.40;;;;;;5061981;28;8772;-65
2022/01/24 11:06:43;;;;;;;;;48.33;42.00;27.60;13.70;;;;;;5076081;28;9458;-64
2022/01/24 11:09:15;;;;;;;;;51.00;43.00;27.00;13.20;;;;;;5076106;28;8780;-65
2022/01/24 11:11:42;;;;;;;;;50.67;42.00;27.70;13.70;;;;;;5071769;28;8784;-68
2022/01/24 11:14:09;;;;;;;;;37.67;34.67;26.10;12.80;;;;;;5064871;28;9460;-66
2022/01/24 11:16:38;;;;;;;;;41.00;36.00;25.60;13.60;;;;;;5055581;28;8783;-67
2022/01/24 11:19:10;;;;;;;;;37.33;34.00;26.60;14.00;;;;;;5066666;28;8780;-65
2022/01/24 11:21:38;;;;;;;;;44.33;38.00;27.80;13.50;;;;;;5065630;28;8886;-67
2022/01/24 11:24:07;;;;;;;;;43.00;37.67;28.60;13.10;;;;;;5064511;28;8786;-68
2022/01/24 11:26:35;;;;;;;;;36.67;33.33;29.50;12.80;;;;;;5067528;28;8794;-67
2022/01/24 11:29:01;;;;;;;;;31.67;30.67;29.90;12.20;;;;;;5066729;28;8780;-67
2022/01/24 11:31:42;;;;;;;;;52.33;44.00;29.90;11.80;;;;;;5055309;28;8789;-65
2022/01/24 11:34:31;;;;;;;;;44.67;39.00;28.70;12.30;;;;;;5055415;28;8774;-65
2022/01/24 11:36:58;;;;;;;;;41.00;36.33;29.30;12.50;;;;;;5054671;28;8813;-66
2022/01/24 11:39:25;;;;;;;;;44.00;38.00;28.80;11.70;;;;;;5055543;28;9421;-66
2022/01/24 11:41:51;;;;;;;;;33.00;31.67;29.70;12.30;;;;;;5057360;28;8827;-65
2022/01/24 11:44:19;;;;;;;;;40.00;36.00;30.30;12.00;;;;;;5063861;28;8807;-68
2022/01/24 11:46:52;;;;;;;;;37.00;33.67;31.30;12.10;;;;;;5055102;28;8782;-67
2022/01/24 11:49:36;;;;;;;;;41.33;37.00;31.60;11.60;;;;;;5055028;28;8795;-66
2022/01/24 11:52:04;;;;;;;;;42.33;37.00;32.40;11.30;;;;;;5066287;28;9603;-68
2022/01/24 11:55:02;;;;;;;;;49.67;42.67;31.80;11.00;;;;;;5055106;28;8852;-67
2022/01/24 11:57:41;;;;;;;;;44.67;38.33;32.20;11.40;;;;;;5063358;28;8765;-66
2022/01/24 12:00:07;;;;;;;;;46.00;39.00;31.90;10.80;;;;;;5075081;28;8863;-65
2022/01/24 12:02:51;;;;;;;;;45.33;39.00;32.20;11.10;;;;;;5066003;28;8806;-66
2022/01/24 12:05:24;;;;;;;;;43.00;37.00;32.90;10.90;;;;;;5056002;28;8807;-66
2022/01/24 12:08:03;;;;;;;;;42.67;37.33;32.30;10.70;;;;;;5065767;28;9565;-75
2022/01/24 12:13:03;;;;;;;;;43.00;37.00;30.30;10.10;;;;;;5054626;28;8923;-66
2022/01/24 12:15:59;;;;;;;;;40.33;35.67;29.90;11.40;;;;;;5062927;28;8792;-66
2022/01/24 12:18:28;;;;;;;;;37.00;34.00;27.90;12.00;;;;;;5059932;28;8808;-71
2022/01/24 12:21:07;;;;;;;;;38.67;34.00;28.80;12.10;;;;;;5074722;28;8793;-65
2022/01/24 12:23:45;;;;;;;;;36.33;33.33;30.40;11.70;;;;;;5065998;28;8780;-66
2022/01/24 12:26:14;;;;;;;;;39.00;35.33;31.30;11.30;;;;;;5063213;28;8787;-64
2022/01/24 12:28:42;;;;;;;;;34.67;32.00;31.90;11.10;;;;;;5054499;28;8763;-65
2022/01/24 12:31:15;;;;;;;;;38.00;35.00;32.40;10.80;;;;;;5054105;28;8853;-65
2022/01/24 12:33:51;;;;;;;;;46.67;40.33;32.30;10.40;;;;;;5060461;28;8775;-66
2022/01/24 12:36:39;;;;;;;;;44.00;38.33;32.80;10.60;;;;;;5058669;28;8912;-67
2022/01/24 12:39:20;;;;;;;;;34.00;32.00;32.00;10.10;;;;;;5059624;28;8749;-69
2022/01/24 12:42:07;;;;;;;;;36.33;33.00;31.90;10.50;;;;;;5065624;28;9482;-69
2022/01/24 12:47:10;;;;;;;;;45.33;39.33;32.20;10.50;;;;;;5072884;28;8799;-67
2022/01/24 12:49:35;;;;;;;;;30.33;30.00;32.60;10.60;;;;;;5070691;28;8756;-66
2022/01/24 12:52:07;;;;;;;;;36.00;33.67;32.50;10.60;;;;;;5073210;28;9459;-67
2022/01/24 12:54:35;;;;;;;;;35.33;33.00;32.60;10.40;;;;;;5067805;28;8802;-66
2022/01/24 12:57:08;;;;;;;;;31.00;30.00;32.80;10.50;;;;;;5068307;28;8792;-66
2022/01/24 12:59:38;;;;;;;;;34.67;33.00;32.60;10.20;;;;;;5071319;28;8861;-67
2022/01/24 13:02:09;;;;;;;;;43.67;38.33;32.40;10.20;;;;;;5072650;28;8894;-67
2022/01/24 13:04:38;;;;;;;;;36.00;33.00;31.60;10.00;;;;;;5070449;28;8752;-66
2022/01/24 13:07:08;;;;;;;;;42.67;37.33;30.80;10.60;;;;;;5073497;28;8764;-66
2022/01/24 13:09:38;;;;;;;;;47.00;40.00;30.30;10.70;;;;;;5074382;28;8776;-66
2022/01/24 13:12:08;;;;;;;;;22.00;22.00;30.10;10.60;;;;;;5074019;28;8772;-67
2022/01/24 13:22:54;;;;;;;;;41.33;36.67;30.30;10.60;;;;;;5073853;28;8883;-67
2022/01/24 13:25:26;;;;;;;;;33.33;31.67;30.50;11.60;;;;;;5071983;28;8894;-69
2022/01/24 13:27:57;;;;;;;;;33.00;31.67;29.90;10.50;;;;;;5063871;28;8795;-68
2022/01/24 13:30:24;;;;;;;;;47.67;40.67;29.70;10.60;;;;;;5072252;28;8887;-68
2022/01/24 13:32:52;;;;;;;;;55.00;46.67;29.00;10.50;;;;;;5073503;28;8792;-68
2022/01/24 13:35:31;;;;;;;;;51.00;44.00;28.40;10.60;;;;;;5074113;28;8766;-66
2022/01/24 13:37:58;;;;;;;;;48.00;42.00;27.50;11.30;;;;;;5073783;28;8792;-66
2022/01/24 13:41:00;;;;;;;;;48.00;41.33;27.40;11.30;;;;;;5073726;28;8849;-67
2022/01/24 13:43:31;;;;;;;;;44.67;38.67;26.80;11.30;;;;;;5073776;28;8857;-69
2022/01/24 13:45:58;;;;;;;;;39.00;35.33;26.70;11.70;;;;;;5073724;28;8776;-67
2022/01/24 13:48:24;;;;;;;;;47.33;40.33;26.90;11.90;;;;;;5074054;28;8796;-66
2022/01/24 13:50:57;;;;;;;;;39.00;35.00;27.00;11.80;;;;;;5073625;28;8807;-65
2022/01/24 13:53:42;;;;;;;;;42.33;38.00;25.20;11.90;;;;;;5073541;28;8776;-70
2022/01/24 13:56:24;;;;;;;;;45.67;39.67;25.30;12.30;;;;;;5073709;28;8753;-63
2022/01/24 13:59:25;;;;;;;;;53.00;44.25;24.20;12.30;;;;;;5074364;28;8760;-66
2022/01/24 14:02:02;;;;;;;;;46.67;40.00;23.60;12.90;;;;;;5076909;28;8808;-64
2022/01/24 14:04:40;;;;;;;;;47.67;41.00;23.10;13.30;;;;;;5077171;28;9055;-63
2022/01/24 14:07:19;;;;;;;;;57.33;46.00;21.60;13.70;;;;;;5077075;28;8772;-63
2022/01/24 14:09:57;;;;;;;;;51.50;43.25;18.80;15.50;;;;;;5077335;28;8822;-71
2022/01/24 14:12:55;;;;;;;;;56.50;45.00;16.10;17.40;;;;;;5076780;28;8791;-63
2022/01/24 14:20:34;;;;;;;;;52.50;43.25;12.00;21.30;;;;;;5076756;28;8756;-64
2022/01/24 14:23:03;;;;;;;;;41.00;36.00;11.80;22.00;;;;;;5073862;28;8768;-69
2022/01/24 14:25:32;;;;;;;;;52.75;43.75;11.40;22.60;;;;;;5076526;28;8783;-73
2022/01/24 14:28:04;;;;;;;;;47.50;39.25;11.10;23.30;;;;;;5076504;28;8773;-65
2022/01/24 14:30:40;;;;;;;;;55.25;43.50;10.80;23.20;;;;;;5076797;28;8772;-64
2022/01/24 14:33:20;;;;;;;;;50.75;41.00;10.40;23.60;;;;;;5076692;28;8768;-71
2022/01/24 14:35:55;;;;;;;;;66.75;54.75;9.90;24.20;;;;;;5076411;28;8775;-68
2022/01/24 14:38:33;;;;;;;;;63.75;52.25;9.40;24.80;;;;;;5076501;28;8772;-67
2022/01/24 14:41:14;;;;;;;;;42.00;39.00;9.00;25.10;;;;;;5076475;28;8841;-67
2022/01/24 14:46:46;;;;;;;;;63.00;50.50;8.70;25.90;;;;;;5076277;28;8764;-66
2022/01/24 14:49:20;;;;;;;;;63.75;52.50;8.20;26.30;;;;;;5076192;28;8779;-65
2022/01/24 14:51:47;;;;;;;;;49.50;42.00;8.10;27.10;;;;;;5071789;28;8810;-66
2022/01/24 14:54:18;;;;;;;;;49.00;45.00;7.90;26.90;;;;;;5062856;28;8913;-65
2022/01/24 14:56:46;;;;;;;;;55.25;45.75;8.00;27.30;;;;;;5064999;28;8864;-65
2022/01/24 14:59:12;;;;;;;;;51.50;44.00;8.00;27.60;;;;;;5056279;28;9463;-66
2022/01/24 15:01:39;;;;;;;;;52.75;46.00;8.10;28.30;;;;;;5055790;28;8795;-64
2022/01/24 15:04:05;;;;;;;;;49.75;40.50;8.10;27.40;;;;;;5056213;28;8767;-64
2022/01/24 15:06:31;;;;;;;;;69.00;55.00;8.00;27.40;;;;;;5057953;28;8779;-64
2022/01/24 15:09:00;;;;;;;;;79.25;62.00;7.60;27.60;;;;;;5063267;28;8803;-64
2022/01/24 15:11:30;;;;;;;;;68.75;57.50;7.50;27.90;;;;;;5062503;28;8828;-65